Time;durP1;ratioP1;P1;durP2;ratioP2;P2;SDS_P1;SDS_P2;PMS_P1;PMS_P2;Temp;Humidity;BMP_temperature;BMP_pressure;BME280_temperature;BME280_humidity;BME280_pressure;Samples;Min_cycle;Max_cycle;Signal;HPM_P1;HPM_P2
2022/02/11 00:00:03;;;;;;;9.98;4.01;;;-0.40;99.90;;;-0.55;87.52;98150.78;173917;28;1186;-76
2022/02/11 00:01:11;;;;;;;8.76;4.06;;;-0.50;99.90;;;-0.63;87.14;98140.72;173223;28;2151;-76
2022/02/11 00:02:05;;;;;;;8.48;3.92;;;-0.40;99.90;;;-0.59;87.82;98144.84;172458;28;979;-76
2022/02/11 00:02:17;;;;;;;9.13;3.97;;;-0.40;99.90;;;-0.67;88.62;98130.41;172459;28;1422;-76
2022/02/11 00:04:08;;;;;;;8.40;4.00;;;-0.50;99.90;;;-0.57;88.49;98157.97;172606;28;847;-75
2022/02/11 00:04:55;;;;;;;7.81;3.97;;;-0.40;99.90;;;-0.61;88.86;98149.38;172528;28;1202;-75
2022/02/11 00:05:31;;;;;;;7.49;3.88;;;-0.50;99.90;;;-0.63;88.66;98145.16;171178;28;1216;-76
2022/02/11 00:07:03;;;;;;;10.76;4.19;;;-0.40;99.90;;;-0.59;89.29;98141.34;170509;29;1207;-76
2022/02/11 00:07:10;;;;;;;8.31;4.19;;;-0.40;99.90;;;-0.66;89.27;98134.78;169478;29;1559;-77
2022/02/11 00:07:16;;;;;;;7.95;4.12;;;-0.40;99.90;;;-0.65;89.33;98136.47;172480;28;1466;-75
2022/02/11 00:07:24;;;;;;;8.90;4.22;;;-0.40;99.90;;;-0.60;89.29;98148.44;172368;28;1418;-76
2022/02/11 00:07:31;;;;;;;9.48;4.45;;;-0.40;99.90;;;-0.65;89.30;98137.31;171659;28;1497;-76
2022/02/11 00:07:38;;;;;;;10.23;4.63;;;-0.50;99.90;;;-0.58;89.06;98143.06;171074;28;1545;-75
2022/02/11 00:07:43;;;;;;;11.37;4.83;;;-0.40;99.90;;;-0.71;89.29;98134.22;170442;29;1493;-75
2022/02/11 00:07:56;;;;;;;11.60;4.95;;;-0.40;99.90;;;-0.57;88.99;98158.78;172438;28;1153;-77
2022/02/11 00:08:01;;;;;;;10.86;4.89;;;-0.40;99.90;;;-0.73;89.04;98123.78;170412;29;1706;-75
2022/02/11 00:08:07;;;;;;;11.35;4.97;;;-0.40;99.90;;;-0.62;88.98;98142.38;171051;28;1334;-75
2022/02/11 00:08:13;;;;;;;11.95;5.10;;;-0.50;99.90;;;-0.75;88.83;98122.16;172412;28;1362;-75
2022/02/11 00:08:19;;;;;;;11.85;5.05;;;-0.40;99.90;;;-0.68;88.82;98128.75;173183;28;900;-77
2022/02/11 00:08:26;;;;;;;12.03;5.07;;;-0.50;99.90;;;-0.66;89.15;98134.78;171797;28;923;-76
2022/02/11 00:08:32;;;;;;;11.83;5.03;;;-0.50;99.90;;;-0.60;89.05;98142.31;170868;28;1626;-77
2022/02/11 00:08:38;;;;;;;11.23;5.20;;;-0.50;99.90;;;-0.59;88.94;98147.50;170577;29;813;-75
2022/02/11 00:08:44;;;;;;;10.10;4.93;;;-0.50;99.90;;;-0.55;89.17;98148.97;170503;29;877;-75
2022/02/11 00:08:50;;;;;;;9.48;4.78;;;-0.40;99.90;;;-0.55;89.00;98153.41;171210;28;913;-75
2022/02/11 00:08:56;;;;;;;9.88;4.85;;;-0.50;99.90;;;-0.64;88.81;98143.47;171745;28;1213;-76
2022/02/11 00:09:03;;;;;;;10.25;4.75;;;-0.50;99.90;;;-0.62;88.81;98138.94;172374;28;1224;-75
2022/02/11 00:09:09;;;;;;;9.23;4.37;;;-0.40;99.90;;;-0.64;88.87;98139.03;171933;28;1823;-76
2022/02/11 00:09:15;;;;;;;9.40;4.50;;;-0.40;99.90;;;-0.62;88.36;98136.28;171879;28;1325;-76
2022/02/11 00:09:21;;;;;;;9.75;4.63;;;-0.40;99.90;;;-0.64;88.37;98139.03;173091;28;1426;-76
2022/02/11 00:09:27;;;;;;;9.85;4.63;;;-0.40;99.90;;;-0.56;88.69;98152.56;174595;28;859;-75
2022/02/11 00:09:34;;;;;;;9.85;4.55;;;-0.40;99.90;;;-0.55;88.86;98148.97;173950;28;844;-76
2022/02/11 00:09:40;;;;;;;10.98;4.82;;;-0.40;99.90;;;-0.59;88.92;98141.34;172429;28;1557;-76
2022/02/11 00:09:46;;;;;;;11.32;4.85;;;-0.40;99.90;;;-0.66;88.94;98126.84;173269;28;1015;-75
2022/02/11 00:09:55;;;;;;;11.30;4.85;;;-0.40;99.90;;;-0.71;88.86;98126.28;173123;28;1056;-75
2022/02/11 00:10:05;;;;;;;11.81;4.88;;;-0.40;99.90;;;-0.62;88.40;98141.56;173087;28;1290;-75
2022/02/11 00:10:11;;;;;;;13.17;4.97;;;-0.40;99.90;;;-0.59;88.83;98146.66;173194;28;1385;-76
2022/02/11 00:10:17;;;;;;;13.50;5.03;;;-0.40;99.90;;;-0.72;88.81;98127.25;173212;28;1435;-76
2022/02/11 00:10:25;;;;;;;13.20;4.90;;;-0.50;99.90;;;-0.75;88.32;98130.94;173985;28;816;-75
2022/02/11 00:10:31;;;;;;;12.23;4.73;;;-0.50;99.90;;;-0.64;88.35;98149.59;173769;28;1460;-75
2022/02/11 00:10:37;;;;;;;11.97;4.60;;;-0.50;99.90;;;-0.83;88.13;98112.13;173241;28;872;-76
2022/02/11 00:10:43;;;;;;;9.93;4.47;;;-0.50;99.90;;;-0.69;88.35;98138.47;172518;28;1411;-76
2022/02/11 00:10:49;;;;;;;9.48;4.43;;;-0.50;99.90;;;-0.59;87.91;98158.06;172406;28;1914;-76
2022/02/11 00:10:55;;;;;;;9.60;4.60;;;-0.50;99.90;;;-0.63;87.93;98150.44;173826;28;863;-76
2022/02/11 00:11:01;;;;;;;9.90;4.57;;;-0.50;99.90;;;-0.60;88.17;98150.22;172548;28;1085;-75
2022/02/11 00:11:07;;;;;;;10.45;4.63;;;-0.50;99.90;;;-1.05;87.97;98080.13;173123;28;1351;-75
2022/02/11 00:11:21;;;;;;;10.85;4.80;;;-0.50;99.90;;;-0.60;88.41;98150.22;172441;28;1315;-76
2022/02/11 00:11:39;;;;;;;11.76;4.88;;;-0.50;99.90;;;-0.57;88.30;98150.03;171832;28;1500;-78
2022/02/11 00:11:45;;;;;;;11.95;4.85;;;-0.50;99.90;;;-0.65;88.35;98139.97;171763;28;1372;-75
2022/02/11 00:11:53;;;;;;;12.13;4.35;;;-0.50;99.90;;;-0.71;88.24;98129.78;171690;28;1201;-76
2022/02/11 00:11:59;;;;;;;11.54;4.38;;;-0.50;99.90;;;-0.56;88.49;98151.72;173027;28;1571;-76
2022/02/11 00:12:05;;;;;;;11.83;4.30;;;-0.50;99.90;;;-0.76;88.19;98115.19;173151;28;1316;-76
2022/02/11 00:12:11;;;;;;;12.58;4.44;;;-0.50;99.90;;;-0.62;88.31;98141.56;173163;28;1254;-75
2022/02/11 00:12:18;;;;;;;13.15;4.65;;;-0.50;99.90;;;-0.68;88.07;98126.09;173848;28;1363;-75
2022/02/11 00:12:27;;;;;;;14.67;4.90;;;-0.40;99.90;;;-0.53;88.10;98151.53;172493;28;1327;-75
2022/02/11 00:12:33;;;;;;;15.50;5.20;;;-0.50;99.90;;;-0.78;88.46;98114.44;173163;28;1294;-74
2022/02/11 00:12:40;;;;;;;15.85;5.10;;;-0.40;99.90;;;-0.75;88.31;98122.16;173795;28;1492;-76
2022/02/11 00:12:46;;;;;;;15.35;5.20;;;-0.40;99.90;;;-0.62;88.36;98136.28;172469;28;1735;-76
2022/02/11 00:12:53;;;;;;;14.43;5.13;;;-0.40;99.90;;;-0.84;88.07;98099.84;172490;28;1334;-76
2022/02/11 00:13:02;;;;;;;14.67;4.93;;;-0.40;99.90;;;-0.57;88.46;98144.75;173131;28;1642;-76
2022/02/11 00:13:08;;;;;;;14.36;4.94;;;-0.40;99.90;;;-0.67;88.16;98130.41;174472;28;1457;-76
2022/02/11 00:13:14;;;;;;;14.68;4.90;;;-0.40;99.90;;;-0.53;88.31;98147.09;172419;28;1366;-75
2022/02/11 00:13:20;;;;;;;14.48;4.85;;;-0.40;99.90;;;-0.67;88.33;98131.28;171779;28;1607;-76
2022/02/11 00:13:28;;;;;;;13.93;4.73;;;-0.40;99.90;;;-0.65;88.24;98131.19;172471;28;1501;-76
2022/02/11 00:13:34;;;;;;;13.10;4.68;;;-0.40;99.90;;;-0.61;88.70;98132.66;173215;28;990;-75
2022/02/11 00:13:40;;;;;;;11.43;4.70;;;-0.40;99.90;;;-0.59;88.55;98139.56;173126;28;1239;-76
2022/02/11 00:13:46;;;;;;;10.88;4.70;;;-0.40;99.90;;;-0.56;88.71;98142.00;173878;28;1303;-76
2022/02/11 00:13:52;;;;;;;11.97;4.70;;;-0.40;99.90;;;-0.63;88.21;98131.94;173872;28;1275;-75
2022/02/11 00:13:58;;;;;;;13.05;4.78;;;-0.30;99.90;;;-0.63;88.28;98129.28;173071;28;1296;-75
2022/02/11 00:14:09;;;;;;;13.37;4.77;;;-0.40;99.90;;;-0.51;88.41;98154.91;172494;28;1407;-75
2022/02/11 00:14:15;;;;;;;14.81;5.06;;;-0.40;99.90;;;-0.63;88.26;98129.28;172458;28;1426;-76
2022/02/11 00:14:21;;;;;;;14.93;5.23;;;-0.30;99.90;;;-0.49;88.31;98156.50;172524;28;1276;-75
2022/02/11 00:14:31;;;;;;;11.88;5.07;;;-0.30;99.90;;;-0.54;88.25;98147.19;171840;28;1361;-76
2022/02/11 00:14:53;;;;;;;10.86;4.71;;;-0.30;99.90;;;-0.52;88.04;98153.22;172463;28;1341;-75
2022/02/11 00:15:44;;;;;;;10.56;4.34;;;-0.30;99.90;;;-0.55;88.68;98137.56;171705;28;1229;-75
2022/02/11 00:15:53;;;;;;;8.12;4.30;;;-0.30;99.90;;;-0.58;89.05;98135.97;172237;28;1862;-76
2022/02/11 00:15:59;;;;;;;9.46;4.41;;;-0.30;99.90;;;-0.52;88.87;98143.47;172854;28;1695;-75
2022/02/11 00:16:05;;;;;;;9.82;4.30;;;-0.30;99.90;;;-0.46;88.97;98150.16;172457;28;1322;-75
2022/02/11 00:16:11;;;;;;;10.40;4.57;;;-0.30;99.90;;;-0.59;89.32;98128.13;171078;28;1470;-76
2022/02/11 00:16:17;;;;;;;11.27;4.63;;;-0.30;99.90;;;-0.49;88.94;98151.22;171072;28;1171;-75
2022/02/11 00:16:23;;;;;;;10.70;4.50;;;-0.30;99.90;;;-0.54;88.67;98134.81;171049;28;1395;-75
2022/02/11 00:16:30;;;;;;;10.88;4.57;;;-0.30;99.90;;;-0.52;88.91;98142.66;170315;28;1401;-76
2022/02/11 00:16:40;;;;;;;9.94;4.42;;;-0.30;99.90;;;-0.50;88.93;98140.72;169796;29;1075;-76
2022/02/11 00:16:46;;;;;;;9.10;4.15;;;-0.30;99.90;;;-0.45;89.16;98146.56;171013;28;1344;-75
2022/02/11 00:16:52;;;;;;;8.55;3.90;;;-0.30;99.90;;;-0.43;89.08;98153.47;171758;28;1246;-75
2022/02/11 00:16:58;;;;;;;8.75;3.88;;;-0.30;99.90;;;-0.41;89.15;98161.28;171705;28;1229;-75
2022/02/11 00:17:04;;;;;;;8.97;4.00;;;-0.20;99.90;;;-0.51;88.84;98149.59;171790;28;1314;-76
2022/02/11 00:17:13;;;;;;;9.10;4.07;;;-0.20;99.90;;;-0.46;89.04;98147.50;170480;29;948;-76
2022/02/11 00:17:19;;;;;;;9.04;4.03;;;-0.30;99.90;;;-0.69;88.79;98116.47;171664;28;1426;-76
2022/02/11 00:17:25;;;;;;;9.93;4.03;;;-0.20;99.90;;;-0.55;88.94;98143.69;172387;28;1219;-76
2022/02/11 00:17:31;;;;;;;10.32;4.00;;;-0.20;99.90;;;-0.77;89.34;98092.34;172432;28;1295;-77
2022/02/11 00:17:37;;;;;;;10.77;4.27;;;-0.20;99.90;;;-0.46;89.35;98153.66;171067;28;1817;-75
2022/02/11 00:17:43;;;;;;;11.77;4.60;;;-0.20;99.90;;;-0.55;89.45;98129.63;171086;28;1342;-75
2022/02/11 00:17:50;;;;;;;12.23;4.68;;;-0.30;99.90;;;-0.48;89.17;98146.78;171752;28;1253;-75
2022/02/11 00:17:56;;;;;;;12.02;4.76;;;-0.20;99.90;;;-0.53;89.34;98135.66;171277;28;887;-75
2022/02/11 00:18:03;;;;;;;12.52;4.72;;;-0.20;99.90;;;-0.45;89.32;98149.22;172380;28;1378;-75
2022/02/11 00:18:16;;;;;;;12.10;4.50;;;-0.20;99.90;;;-0.55;89.16;98137.56;171134;28;1847;-75
2022/02/11 00:18:22;;;;;;;10.99;4.29;;;-0.30;99.90;;;-0.48;89.06;98152.91;172398;28;1597;-75
2022/02/11 00:18:29;;;;;;;9.85;4.43;;;-0.30;99.90;;;-0.57;89.14;98135.00;172469;28;1438;-76
2022/02/11 00:18:34;;;;;;;9.17;4.30;;;-0.30;99.90;;;-0.45;89.24;98154.50;172134;28;1535;-76
2022/02/11 00:18:40;;;;;;;9.18;4.30;;;-0.30;99.90;;;-0.50;89.56;98146.03;172672;28;1276;-75
2022/02/11 00:18:46;;;;;;;9.13;4.30;;;-0.30;99.90;;;-0.49;89.40;98148.56;173069;28;1499;-75
2022/02/11 00:18:52;;;;;;;8.63;4.13;;;-0.20;99.90;;;-0.46;89.38;98158.09;173074;28;1260;-75
2022/02/11 00:18:59;;;;;;;8.83;4.03;;;-0.30;99.90;;;-0.59;89.23;98133.41;173812;28;1673;-76
2022/02/11 00:19:06;;;;;;;9.68;4.10;;;-0.30;99.90;;;-0.55;89.30;98140.19;171783;28;1342;-75
2022/02/11 00:19:12;;;;;;;10.57;4.17;;;-0.30;99.90;;;-0.54;89.09;98144.53;172436;28;1425;-76
2022/02/11 00:19:18;;;;;;;10.60;4.30;;;-0.30;99.90;;;-0.57;89.28;98140.28;173834;28;1272;-75
2022/02/11 00:19:24;;;;;;;10.23;4.37;;;-0.30;99.90;;;-0.65;89.47;98125.91;172530;28;1228;-76
2022/02/11 00:19:30;;;;;;;10.88;4.45;;;-0.30;99.90;;;-0.80;88.97;98100.47;172469;28;1321;-76
2022/02/11 00:19:36;;;;;;;10.25;4.53;;;-0.30;99.90;;;-0.48;89.05;98157.34;173154;28;1330;-75
2022/02/11 00:19:42;;;;;;;10.20;4.60;;;-0.30;99.90;;;-0.46;89.09;98163.38;173205;28;1391;-75
2022/02/11 00:19:48;;;;;;;10.90;4.37;;;-0.30;99.90;;;-0.53;89.32;98151.53;173111;28;1288;-76
2022/02/11 00:19:54;;;;;;;10.88;4.28;;;-0.30;99.90;;;-0.52;89.27;98148.75;172391;28;1347;-76
2022/02/11 00:20:01;;;;;;;9.50;4.07;;;-0.30;99.90;;;-0.59;88.95;98138.72;173167;28;1519;-75
2022/02/11 00:20:08;;;;;;;9.60;3.90;;;-0.30;99.90;;;-0.56;89.43;98149.06;173036;28;1393;-76
2022/02/11 00:20:14;;;;;;;8.73;3.80;;;-0.30;99.90;;;-0.54;89.29;98149.81;172441;28;1325;-75
2022/02/11 00:20:20;;;;;;;9.65;3.88;;;-0.30;99.90;;;-0.62;89.18;98141.56;173167;28;1340;-76
2022/02/11 00:20:26;;;;;;;10.75;4.03;;;-0.30;99.90;;;-0.56;89.25;98149.06;173214;28;1512;-75
2022/02/11 00:20:33;;;;;;;13.50;4.22;;;-0.30;99.90;;;-0.66;89.24;98137.41;172502;28;1379;-76
2022/02/11 00:20:41;;;;;;;14.43;4.23;;;-0.30;99.90;;;-0.70;88.94;98128.00;172439;28;1406;-76
2022/02/11 00:20:50;;;;;;;14.27;4.27;;;-0.30;99.90;;;-0.59;89.08;98144.00;173737;28;1416;-75
2022/02/11 00:20:56;;;;;;;12.81;3.95;;;-0.30;99.90;;;-0.66;88.97;98134.78;173840;28;2272;-76
2022/02/11 00:21:03;;;;;;;9.85;3.88;;;-0.30;99.90;;;-0.79;89.21;98110.97;171459;28;1488;-75
2022/02/11 00:21:09;;;;;;;9.20;4.15;;;-0.30;99.90;;;-0.50;89.36;98160.09;173267;28;1108;-76
2022/02/11 00:21:15;;;;;;;8.80;4.18;;;-0.30;99.90;;;-0.82;89.29;98102.38;173860;28;1234;-77
2022/02/11 00:21:21;;;;;;;8.23;4.30;;;-0.30;99.90;;;-0.57;89.47;98145.56;173880;28;1337;-76
2022/02/11 00:21:29;;;;;;;9.23;4.40;;;-0.30;99.90;;;-0.67;89.05;98127.78;172473;28;1426;-76
2022/02/11 00:21:35;;;;;;;10.44;4.17;;;-0.30;99.90;;;-0.63;89.33;98131.94;172418;28;2574;-75
2022/02/11 00:21:41;;;;;;;10.13;4.03;;;-0.30;99.90;;;-0.59;89.19;98141.34;173174;28;1363;-76
2022/02/11 00:21:47;;;;;;;10.60;4.07;;;-0.30;99.90;;;-0.52;89.03;98154.03;173161;28;1297;-75
2022/02/11 00:21:53;;;;;;;11.45;4.25;;;-0.30;99.90;;;-0.64;88.85;98135.53;172429;28;1395;-75
2022/02/11 00:22:00;;;;;;;10.18;4.30;;;-0.30;99.90;;;-0.61;89.38;98132.66;173100;28;1235;-76
2022/02/11 00:22:06;;;;;;;9.60;4.30;;;-0.30;99.90;;;-0.64;89.14;98132.88;173207;28;1336;-75
2022/02/11 00:22:12;;;;;;;9.57;4.10;;;-0.30;99.90;;;-0.86;88.84;98097.28;173763;28;1305;-75
2022/02/11 00:22:17;;;;;;;8.82;3.97;;;-0.30;99.90;;;-0.54;89.00;98147.19;173889;28;1352;-75
2022/02/11 00:22:25;;;;;;;7.95;3.85;;;-0.30;99.90;;;-0.66;89.25;98130.34;173206;28;1235;-75
2022/02/11 00:22:30;;;;;;;8.88;3.90;;;-0.30;99.90;;;-0.52;89.07;98156.69;173110;28;1406;-75
2022/02/11 00:22:36;;;;;;;9.77;3.83;;;-0.30;99.90;;;-0.58;89.32;98137.78;172465;28;1366;-75
2022/02/11 00:22:42;;;;;;;10.25;3.88;;;-0.30;99.90;;;-0.46;89.38;98161.56;172480;28;1410;-75
2022/02/11 00:22:49;;;;;;;10.93;3.97;;;-0.30;99.90;;;-0.58;89.08;98137.78;173138;28;1503;-76
2022/02/11 00:22:55;;;;;;;11.07;4.00;;;-0.30;99.90;;;-0.48;89.05;98160.84;171876;28;1015;-75
2022/02/11 00:23:03;;;;;;;11.13;4.53;;;-0.30;99.90;;;-0.45;89.17;98157.13;173154;28;1400;-75
2022/02/11 00:23:09;;;;;;;9.91;4.56;;;-0.30;99.90;;;-0.44;89.32;98162.34;173803;28;1582;-75
2022/02/11 00:23:20;;;;;;;9.60;4.50;;;-0.30;99.90;;;-0.45;89.29;98160.63;173797;28;1462;-75
2022/02/11 00:23:26;;;;;;;8.21;4.11;;;-0.30;99.90;;;-0.51;89.35;98146.97;173871;28;1500;-76
2022/02/11 00:23:35;;;;;;;6.43;3.57;;;-0.30;99.90;;;-0.46;89.37;98155.44;173202;28;1370;-75
2022/02/11 00:23:41;;;;;;;7.51;3.67;;;-0.30;99.90;;;-0.47;89.15;98154.59;172605;28;1110;-75
2022/02/11 00:23:47;;;;;;;8.05;3.72;;;-0.30;99.90;;;-0.60;88.86;98132.56;172406;28;1480;-75
2022/02/11 00:23:53;;;;;;;10.10;4.07;;;-0.30;99.90;;;-0.84;88.77;98093.72;172609;28;939;-76
2022/02/11 00:24:00;;;;;;;11.25;4.10;;;-0.30;99.90;;;-0.44;88.86;98158.84;173135;28;1374;-76
2022/02/11 00:24:06;;;;;;;10.60;4.10;;;-0.30;99.90;;;-0.57;88.55;98139.47;173124;28;1514;-75
2022/02/11 00:24:13;;;;;;;10.70;4.15;;;-0.30;99.90;;;-0.71;88.54;98121.00;173143;28;1382;-75
2022/02/11 00:24:19;;;;;;;10.47;4.20;;;-0.30;99.90;;;-0.76;88.41;98108.09;172527;28;1453;-75
2022/02/11 00:24:25;;;;;;;9.27;4.07;;;-0.30;99.90;;;-0.69;88.44;98119.13;173241;28;891;-76
2022/02/11 00:24:31;;;;;;;9.10;4.22;;;-0.30;99.90;;;-0.59;88.80;98138.72;173138;28;1417;-76
2022/02/11 00:24:37;;;;;;;8.95;4.03;;;-0.30;99.90;;;-0.54;88.92;98142.75;172441;28;1283;-75
2022/02/11 00:24:43;;;;;;;8.40;3.90;;;-0.30;99.90;;;-0.59;88.49;98138.72;172467;28;1438;-75
2022/02/11 00:24:51;;;;;;;9.82;3.85;;;-0.30;99.90;;;-0.47;88.90;98157.22;171842;28;1302;-75
2022/02/11 00:24:57;;;;;;;9.47;3.85;;;-0.30;99.90;;;-0.56;88.66;98144.63;171759;28;1653;-76
2022/02/11 00:25:04;;;;;;;9.90;3.83;;;-0.30;99.90;;;-0.52;88.33;98153.22;172438;28;1222;-75
2022/02/11 00:25:09;;;;;;;12.32;4.10;;;-0.30;99.90;;;-0.47;88.77;98156.41;171755;28;1478;-75
2022/02/11 00:25:16;;;;;;;13.30;4.10;;;-0.30;99.90;;;-0.54;88.44;98144.53;172553;28;875;-75
2022/02/11 00:25:23;;;;;;;13.28;4.12;;;-0.40;99.90;;;-0.52;88.33;98147.94;172435;28;903;-76
2022/02/11 00:25:29;;;;;;;13.82;3.95;;;-0.30;99.90;;;-0.61;88.49;98136.16;172534;28;781;-75
2022/02/11 00:25:43;;;;;;;12.30;3.80;;;-0.30;99.90;;;-0.52;88.79;98148.75;173120;28;1497;-76
2022/02/11 00:26:01;;;;;;;9.32;3.78;;;-0.30;99.90;;;-0.52;88.51;98145.31;172448;28;1517;-75
2022/02/11 00:26:08;;;;;;;8.24;3.78;;;-0.40;99.90;;;-0.66;88.30;98132.97;173229;28;1199;-76
2022/02/11 00:26:14;;;;;;;9.07;3.95;;;-0.40;99.90;;;-0.58;88.38;98148.34;172568;28;872;-75
2022/02/11 00:26:20;;;;;;;9.87;4.23;;;-0.40;99.90;;;-0.60;88.74;98145.78;173113;28;1471;-77
2022/02/11 00:26:32;;;;;;;10.20;4.53;;;-0.40;99.90;;;-0.65;88.68;98128.53;172464;28;1362;-75
2022/02/11 00:26:42;;;;;;;11.46;4.76;;;-0.40;99.90;;;-0.56;88.40;98142.00;171799;28;1501;-75
2022/02/11 00:27:07;;;;;;;11.93;4.72;;;-0.40;99.90;;;-0.60;88.56;98142.31;172369;28;1297;-76
2022/02/11 00:28:48;;;;;;;8.43;4.20;;;-0.40;99.90;;;-0.53;88.73;98154.16;172522;28;1173;-75
2022/02/11 00:31:37;;;;;;;8.40;3.80;;;-0.50;99.90;;;-0.63;87.65;98147.81;173243;28;752;-75
2022/02/11 00:32:12;;;;;;;8.47;3.83;;;-0.50;99.90;;;-0.86;87.61;98115.78;173226;28;1188;-75
2022/02/11 00:32:30;;;;;;;8.43;3.72;;;-0.50;99.90;;;-0.78;87.72;98130.31;173175;28;1464;-76
2022/02/11 00:32:48;;;;;;;8.75;3.70;;;-0.50;99.90;;;-0.62;87.44;98152.16;173120;28;1520;-75
2022/02/11 00:33:26;;;;;;;7.15;3.75;;;-0.50;99.90;;;-0.67;88.02;98141.84;171818;28;1191;-77
2022/02/11 00:33:33;;;;;;;7.35;3.52;;;-0.50;99.90;;;-0.70;87.74;98138.56;171807;28;1445;-76
2022/02/11 00:33:40;;;;;;;8.87;3.80;;;-0.50;99.90;;;-0.60;87.71;98150.22;173171;28;1259;-76
2022/02/11 00:33:50;;;;;;;8.83;3.80;;;-0.50;99.90;;;-0.88;88.07;98104.47;172483;28;1439;-76
2022/02/11 00:33:58;;;;;;;8.59;3.89;;;-0.50;99.90;;;-0.61;87.87;98148.53;172452;28;1363;-76
2022/02/11 00:34:04;;;;;;;8.40;4.07;;;-0.50;99.90;;;-0.56;87.84;98159.66;171800;28;1337;-75
2022/02/11 00:34:10;;;;;;;9.27;4.00;;;-0.50;99.90;;;-0.64;87.59;98149.59;171774;28;1346;-77
2022/02/11 00:34:18;;;;;;;9.48;4.10;;;-0.50;99.90;;;-0.60;88.07;98152.88;173077;28;1428;-75
2022/02/11 00:34:32;;;;;;;9.53;4.18;;;-0.50;99.90;;;-0.58;87.79;98154.47;173182;28;1472;-75
2022/02/11 00:34:47;;;;;;;8.60;4.07;;;-0.40;99.90;;;-0.66;87.53;98148.00;173131;28;1559;-75
2022/02/11 00:35:01;;;;;;;6.71;3.60;;;-0.40;99.90;;;-0.61;87.45;98161.75;172432;28;1405;-75
2022/02/11 00:35:24;;;;;;;8.04;3.50;;;-0.50;99.90;;;-0.66;87.14;98153.28;172466;28;2174;-75
2022/02/11 00:35:38;;;;;;;10.20;3.94;;;-0.50;99.90;;;-0.70;86.71;98152.63;172409;28;1362;-76
2022/02/11 00:35:51;;;;;;;9.07;3.84;;;-0.50;99.90;;;-0.81;86.98;98143.72;172481;28;1324;-75
2022/02/11 00:36:00;;;;;;;7.95;3.79;;;-0.50;99.90;;;-0.76;86.65;98150.41;172480;28;1216;-75
2022/02/11 00:36:09;;;;;;;7.70;3.76;;;-0.50;99.90;;;-0.83;87.20;98141.19;172355;28;1426;-76
2022/02/11 00:36:16;;;;;;;8.31;3.90;;;-0.50;99.90;;;-0.85;86.85;98145.72;172394;28;1446;-75
2022/02/11 00:36:29;;;;;;;8.74;3.80;;;-0.50;99.90;;;-0.77;87.16;98163.69;171767;28;1471;-75
2022/02/11 00:37:18;;;;;;;9.75;4.18;;;-0.50;99.90;;;-0.78;86.86;98160.25;171204;28;1050;-76
2022/02/11 00:37:20;;;;;;;9.99;3.96;;;-0.50;99.90;;;-0.80;87.16;98143.63;172451;28;1466;-75
2022/02/11 00:37:26;;;;;;;8.96;4.04;;;-0.60;99.90;;;-0.82;86.41;98156.06;172368;28;1321;-76
2022/02/11 00:37:36;;;;;;;8.20;4.03;;;-0.50;99.90;;;-0.87;86.75;98151.09;173839;28;1369;-75
2022/02/11 00:37:42;;;;;;;7.91;3.85;;;-0.60;99.90;;;-0.91;87.13;98143.47;174617;28;1119;-75
2022/02/11 00:37:48;;;;;;;9.57;4.05;;;-0.60;99.90;;;-0.84;86.93;98151.84;173191;28;1476;-76
2022/02/11 00:37:54;;;;;;;8.95;3.97;;;-0.60;99.90;;;-0.86;86.92;98154.59;174494;28;1338;-75
2022/02/11 00:38:07;;;;;;;8.84;3.92;;;-0.60;99.90;;;-0.82;86.52;98165.81;174643;28;846;-76
2022/02/11 00:38:19;;;;;;;9.01;4.14;;;-0.60;99.90;;;-0.90;87.10;98151.31;172745;28;1513;-75
2022/02/11 00:39:13;;;;;;;7.71;4.13;;;-0.60;99.90;;;-0.85;87.00;98156.28;171744;28;1353;-75
2022/02/11 00:39:34;;;;;;;7.50;3.67;;;-0.60;99.90;;;-0.82;87.59;98157.88;171914;28;1200;-75
2022/02/11 00:40:22;;;;;;;11.23;4.09;;;-0.60;99.90;;;-0.90;87.64;98147.81;173928;28;1023;-75
2022/02/11 00:40:28;;;;;;;11.06;4.10;;;-0.60;99.90;;;-0.77;87.80;98174.28;173912;28;1197;-75
2022/02/11 00:47:05;;;;;;;8.31;4.28;;;-0.70;99.90;;;-0.83;88.81;98164.97;169850;29;1531;-76
2022/02/11 00:53:39;;;;;;;9.43;3.79;;;-0.70;99.90;;;-0.81;88.51;98168.34;173888;28;1179;-75
2022/02/11 01:02:10;;;;;;;8.23;3.99;;;-0.70;99.90;;;-0.96;88.13;98150.84;171881;28;1167;-76
2022/02/11 01:02:18;;;;;;;10.76;4.03;;;-0.60;99.90;;;-0.75;89.77;98175.03;172748;28;1203;-75
2022/02/11 01:02:31;;;;;;;9.19;4.05;;;-0.60;99.90;;;-0.80;89.54;98172.69;173264;28;1325;-75
2022/02/11 01:02:47;;;;;;;10.36;3.97;;;-0.70;99.90;;;-0.87;89.78;98158.16;172557;28;2154;-76
2022/02/11 01:03:02;;;;;;;9.66;3.81;;;-0.70;99.90;;;-0.79;89.92;98168.25;174062;28;1345;-75
2022/02/11 01:03:19;;;;;;;8.02;3.81;;;-0.60;99.90;;;-0.88;90.51;98157.31;174650;28;1462;-76
2022/02/11 01:04:06;;;;;;;9.50;3.80;;;-0.70;99.90;;;-0.79;90.14;98165.63;172041;28;1191;-75
2022/02/11 01:04:14;;;;;;;9.23;3.95;;;-0.70;99.90;;;-0.77;89.83;98171.63;173338;28;1334;-76
2022/02/11 01:04:19;;;;;;;9.23;3.90;;;-0.70;99.90;;;-0.77;89.96;98171.63;173247;28;1390;-76
2022/02/11 01:04:26;;;;;;;8.38;3.78;;;-0.70;99.90;;;-0.82;90.24;98160.50;171985;28;1276;-76
2022/02/11 01:04:32;;;;;;;8.80;3.90;;;-0.70;99.90;;;-0.75;89.77;98175.03;171971;28;1319;-75
2022/02/11 01:04:38;;;;;;;8.75;3.90;;;-0.70;99.90;;;-0.83;89.77;98164.97;173453;28;966;-75
2022/02/11 01:04:44;;;;;;;8.68;3.90;;;-0.70;99.90;;;-0.88;90.01;98152.03;172585;28;1302;-76
2022/02/11 01:04:50;;;;;;;8.78;3.80;;;-0.70;99.90;;;-0.87;89.88;98164.31;173890;28;1403;-76
2022/02/11 01:04:56;;;;;;;8.77;3.83;;;-0.70;99.90;;;-0.89;89.87;98158.28;173434;28;851;-76
2022/02/11 01:05:02;;;;;;;7.88;3.63;;;-0.70;99.90;;;-0.92;89.57;98155.84;173331;28;1200;-75
2022/02/11 01:05:08;;;;;;;8.67;3.60;;;-0.70;99.90;;;-0.87;89.88;98161.66;173998;28;1527;-76
2022/02/11 01:05:14;;;;;;;8.57;3.63;;;-0.70;99.90;;;-0.87;89.96;98158.16;174749;28;1287;-75
2022/02/11 01:05:20;;;;;;;8.80;3.85;;;-0.70;99.90;;;-0.78;89.58;98176.09;173299;28;1292;-76
2022/02/11 01:05:27;;;;;;;8.93;3.78;;;-0.70;99.90;;;-0.86;89.84;98163.38;171967;28;1327;-75
2022/02/11 01:05:33;;;;;;;8.95;3.92;;;-0.70;99.90;;;-0.91;90.07;98159.31;172745;28;852;-76
2022/02/11 01:05:39;;;;;;;8.00;3.90;;;-0.60;99.90;;;-0.86;90.23;98162.53;171814;28;1366;-76
2022/02/11 01:05:46;;;;;;;7.88;3.95;;;-0.70;99.90;;;-0.88;90.02;98157.31;173281;28;1220;-76
2022/02/11 01:05:52;;;;;;;7.42;3.88;;;-0.70;99.90;;;-0.78;89.96;98169.97;173994;28;1472;-76
2022/02/11 01:05:58;;;;;;;8.13;4.00;;;-0.70;99.90;;;-0.92;89.87;98150.56;172708;28;1422;-75
2022/02/11 01:06:04;;;;;;;8.05;3.95;;;-0.70;99.90;;;-0.80;90.14;98167.41;172625;28;1304;-76
2022/02/11 01:06:11;;;;;;;8.30;4.15;;;-0.60;99.90;;;-0.84;90.08;98170.34;172692;28;1169;-75
2022/02/11 01:06:17;;;;;;;8.60;4.20;;;-0.70;99.90;;;-1.22;90.25;98096.22;173410;28;1554;-75
2022/02/11 01:06:23;;;;;;;9.53;4.37;;;-0.60;99.90;;;-0.91;90.25;98149.59;172072;28;1311;-74
2022/02/11 01:06:30;;;;;;;8.46;4.26;;;-0.60;99.90;;;-0.86;90.30;98154.59;171432;28;1453;-74
2022/02/11 01:06:36;;;;;;;9.53;4.37;;;-0.60;99.90;;;-0.97;90.38;98138.56;172120;28;1427;-75
2022/02/11 01:06:43;;;;;;;10.48;4.35;;;-0.60;99.90;;;-0.80;90.26;98170.06;173328;28;1496;-74
2022/02/11 01:06:49;;;;;;;10.97;4.23;;;-0.60;99.90;;;-0.84;90.15;98162.44;173562;28;1333;-75
2022/02/11 01:06:55;;;;;;;11.23;4.30;;;-0.70;99.90;;;-0.76;90.28;98173.34;173462;28;1291;-76
2022/02/11 01:07:02;;;;;;;10.90;4.18;;;-0.60;99.90;;;-0.82;90.37;98163.16;172231;28;1496;-75
2022/02/11 01:07:09;;;;;;;10.62;4.20;;;-0.70;99.90;;;-0.79;90.23;98162.97;172930;28;914;-76
2022/02/11 01:07:15;;;;;;;9.10;4.02;;;-0.60;99.90;;;-0.86;90.57;98158.09;172893;28;1473;-78
2022/02/11 01:07:22;;;;;;;9.10;3.83;;;-0.60;99.90;;;-0.77;90.25;98174.28;173012;28;1616;-78
2022/02/11 01:07:28;;;;;;;9.10;3.87;;;-0.60;99.90;;;-0.76;90.24;98181.25;173640;28;1677;-75
2022/02/11 01:07:34;;;;;;;9.28;3.90;;;-0.70;99.90;;;-1.01;90.14;98145.88;173687;28;973;-75
2022/02/11 01:07:40;;;;;;;9.10;3.78;;;-0.60;99.90;;;-0.88;90.26;98167.91;173027;28;1292;-75
2022/02/11 01:07:46;;;;;;;8.80;3.83;;;-0.60;99.90;;;-0.88;90.37;98167.91;173114;28;1325;-75
2022/02/11 01:07:52;;;;;;;8.27;3.95;;;-0.60;99.90;;;-0.87;90.10;98168.75;173930;28;1239;-76
2022/02/11 01:07:58;;;;;;;8.63;3.97;;;-0.70;99.90;;;-0.88;90.24;98167.03;173107;28;1215;-76
2022/02/11 01:08:04;;;;;;;7.82;3.85;;;-0.70;99.90;;;-0.90;90.15;98161.03;173900;28;1172;-77
2022/02/11 01:08:10;;;;;;;8.76;3.84;;;-0.60;99.90;;;-0.86;90.46;98166.00;174034;28;1117;-78
2022/02/11 01:08:16;;;;;;;8.90;3.85;;;-0.70;99.90;;;-0.96;90.19;98154.34;173190;28;1333;-75
2022/02/11 01:08:22;;;;;;;8.73;3.78;;;-0.70;99.90;;;-0.91;90.49;98157.53;173118;28;1393;-75